createdAt,value
2017-09-29T00:00:58.601Z,1010.43
2017-09-29T00:01:58.638Z,1010.47
2017-09-29T00:02:58.677Z,1010.47
2017-09-29T00:03:58.715Z,1010.46
2017-09-29T00:04:58.752Z,1010.51
2017-09-29T00:05:58.792Z,1010.45
2017-09-29T00:06:58.827Z,1010.45
2017-09-29T00:07:58.866Z,1010.43
2017-09-29T00:08:58.903Z,1010.44
2017-09-29T00:09:58.940Z,1010.44
2017-09-29T00:10:58.977Z,1010.42
2017-09-29T00:11:59.015Z,1010.45
2017-09-29T00:12:59.052Z,1010.41
2017-09-29T00:13:59.090Z,1010.42
2017-09-29T00:14:59.127Z,1010.4
2017-09-29T00:15:59.169Z,1010.42
2017-09-29T00:16:59.203Z,1010.41
2017-09-29T00:17:59.242Z,1010.39
2017-09-29T00:18:59.279Z,1010.46
2017-09-29T00:19:59.315Z,1010.38
2017-09-29T00:20:59.353Z,1010.41
2017-09-29T00:21:59.390Z,1010.39
2017-09-29T00:22:59.428Z,1010.37
2017-09-29T00:23:59.466Z,1010.35
2017-09-29T00:24:59.505Z,1010.37
2017-09-29T00:25:59.541Z,1010.41
2017-09-29T00:26:59.578Z,1010.37
2017-09-29T00:27:59.616Z,1010.41
2017-09-29T00:28:59.654Z,1010.35
2017-09-29T00:29:59.692Z,1010.36
2017-09-29T00:30:59.728Z,1010.32
2017-09-29T00:31:59.768Z,1010.3
2017-09-29T00:32:59.804Z,1010.34
2017-09-29T00:33:59.841Z,1010.3
2017-09-29T00:34:59.879Z,1010.3
2017-09-29T00:35:59.916Z,1010.37
2017-09-29T00:36:59.954Z,1010.33
2017-09-29T00:37:59.991Z,1010.35
2017-09-29T00:39:00.030Z,1010.32
2017-09-29T00:40:00.067Z,1010.31
2017-09-29T00:41:00.105Z,1010.31
2017-09-29T00:42:00.141Z,1010.31
2017-09-29T00:43:00.178Z,1010.33
2017-09-29T00:44:00.216Z,1010.33
2017-09-29T00:45:00.253Z,1010.29
2017-09-29T00:46:00.291Z,1010.34
2017-09-29T00:47:00.329Z,1010.32
2017-09-29T00:48:00.366Z,1010.33
2017-09-29T00:49:00.405Z,1010.32
2017-09-29T00:50:00.440Z,1010.34
2017-09-29T00:51:00.479Z,1010.35
2017-09-29T00:52:00.516Z,1010.31
2017-09-29T00:53:00.552Z,1010.34
2017-09-29T00:54:00.591Z,1010.33
2017-09-29T00:55:00.628Z,1010.34
2017-09-29T00:56:00.665Z,1010.36
2017-09-29T00:57:00.703Z,1010.33
2017-09-29T00:58:00.741Z,1010.31
2017-09-29T00:59:00.778Z,1010.31
2017-09-29T01:00:00.815Z,1010.35
2017-09-29T01:01:00.852Z,1010.33
2017-09-29T01:02:00.891Z,1010.37
2017-09-29T01:03:00.928Z,1010.33
2017-09-29T01:04:00.966Z,1010.34
2017-09-29T01:05:01.004Z,1010.32
2017-09-29T01:06:01.042Z,1010.32
2017-09-29T01:07:01.078Z,1010.31
2017-09-29T01:08:01.116Z,1010.27
2017-09-29T01:09:01.153Z,1010.27
2017-09-29T01:10:01.193Z,1010.23
2017-09-29T01:11:01.228Z,1010.22
2017-09-29T01:12:01.267Z,1010.23
2017-09-29T01:13:01.303Z,1010.19
2017-09-29T01:14:01.341Z,1010.21
2017-09-29T01:15:01.379Z,1010.25
2017-09-29T01:16:01.416Z,1010.27
2017-09-29T01:17:01.453Z,1010.26
2017-09-29T01:18:01.490Z,1010.25
2017-09-29T01:19:01.530Z,1010.28
2017-09-29T01:20:01.565Z,1010.26
2017-09-29T01:21:01.604Z,1010.34
2017-09-29T01:22:01.640Z,1010.33
2017-09-29T01:23:01.677Z,1010.29
2017-09-29T01:24:01.714Z,1010.27
2017-09-29T01:25:01.753Z,1010.3
2017-09-29T01:26:01.789Z,1010.31
2017-09-29T01:27:01.827Z,1010.29
2017-09-29T01:28:01.866Z,1010.33
2017-09-29T01:29:01.901Z,1010.33
2017-09-29T01:30:01.940Z,1010.34
2017-09-29T01:31:01.979Z,1010.31
2017-09-29T01:32:02.015Z,1010.31
2017-09-29T01:33:02.052Z,1010.27
2017-09-29T01:34:02.089Z,1010.29
2017-09-29T01:35:02.127Z,1010.29
2017-09-29T01:36:02.165Z,1010.28
2017-09-29T01:37:02.202Z,1010.25
2017-09-29T01:38:02.239Z,1010.24
2017-09-29T01:39:02.277Z,1010.28
2017-09-29T01:40:02.314Z,1010.27
2017-09-29T01:41:02.352Z,1010.3
2017-09-29T01:42:02.390Z,1010.27
2017-09-29T01:43:02.427Z,1010.23
2017-09-29T01:44:02.465Z,1010.27
2017-09-29T01:45:02.502Z,1010.25
2017-09-29T01:46:02.540Z,1010.27
2017-09-29T01:47:02.576Z,1010.26
2017-09-29T01:48:02.614Z,1010.3
2017-09-29T01:49:02.651Z,1010.29
2017-09-29T01:50:02.690Z,1010.28
2017-09-29T01:51:02.725Z,1010.29
2017-09-29T01:52:02.765Z,1010.26
2017-09-29T01:53:02.801Z,1010.29
2017-09-29T01:54:02.838Z,1010.26
2017-09-29T01:55:02.876Z,1010.26
2017-09-29T01:56:02.913Z,1010.25
2017-09-29T01:57:02.950Z,1010.29
2017-09-29T01:58:02.988Z,1010.3
2017-09-29T01:59:03.025Z,1010.28
2017-09-29T02:00:03.062Z,1010.28
2017-09-29T02:01:03.100Z,1010.31
2017-09-29T02:02:03.137Z,1010.28
2017-09-29T02:03:03.174Z,1010.24
2017-09-29T02:04:03.213Z,1010.28
2017-09-29T02:05:03.250Z,1010.28
2017-09-29T02:06:03.286Z,1010.25
2017-09-29T02:07:03.330Z,1010.25
2017-09-29T02:08:03.361Z,1010.28
2017-09-29T02:09:03.399Z,1010.24
2017-09-29T02:10:03.437Z,1010.24
2017-09-29T02:11:03.474Z,1010.21
2017-09-29T02:12:03.510Z,1010.24
2017-09-29T02:13:03.551Z,1010.25
2017-09-29T02:14:03.585Z,1010.22
2017-09-29T02:15:03.623Z,1010.2
2017-09-29T02:16:03.661Z,1010.25
2017-09-29T02:17:03.697Z,1010.2
2017-09-29T02:18:03.735Z,1010.22
2017-09-29T02:19:03.773Z,1010.17
2017-09-29T02:20:03.810Z,1010.22
2017-09-29T02:21:03.846Z,1010.14
2017-09-29T02:22:03.884Z,1010.2
2017-09-29T02:23:03.929Z,1010.14
2017-09-29T02:24:03.958Z,1010.18
2017-09-29T02:25:03.997Z,1010.12
2017-09-29T02:26:04.033Z,1010.13
2017-09-29T02:27:04.071Z,1010.16
2017-09-29T02:28:04.109Z,1010.15
2017-09-29T02:29:04.145Z,1010.18
2017-09-29T02:30:04.182Z,1010.15
2017-09-29T02:31:04.220Z,1010.16
2017-09-29T02:32:04.257Z,1010.14
2017-09-29T02:33:04.296Z,1010.13
2017-09-29T02:34:04.333Z,1010.12
2017-09-29T02:35:04.368Z,1010.14
2017-09-29T02:36:04.406Z,1010.13
2017-09-29T02:37:04.443Z,1010.15
2017-09-29T02:38:04.481Z,1010.18
2017-09-29T02:39:04.518Z,1010.14
2017-09-29T02:40:04.556Z,1010.13
2017-09-29T02:41:04.594Z,1010.15
2017-09-29T02:42:04.631Z,1010.12
2017-09-29T02:43:04.668Z,1010.15
2017-09-29T02:44:04.706Z,1010.12
2017-09-29T02:45:04.744Z,1010.1
2017-09-29T02:46:04.780Z,1010.14
2017-09-29T02:47:04.818Z,1010.13
2017-09-29T02:48:04.855Z,1010.09
2017-09-29T02:49:04.891Z,1010.14
2017-09-29T02:50:04.929Z,1010.11
2017-09-29T02:51:04.966Z,1010.07
2017-09-29T02:52:05.005Z,1010.13
2017-09-29T02:53:05.043Z,1010.13
2017-09-29T02:54:05.079Z,1010.09
2017-09-29T02:55:05.116Z,1010.11
2017-09-29T02:56:05.154Z,1010.11
2017-09-29T02:57:05.191Z,1010.07
2017-09-29T02:58:05.227Z,1010.11
2017-09-29T02:59:05.265Z,1010.09
2017-09-29T03:00:05.312Z,1010.06
2017-09-29T03:01:05.339Z,1010.05
2017-09-29T03:02:05.376Z,1010.07
2017-09-29T03:03:05.413Z,1010.08
2017-09-29T03:04:05.450Z,1010.05
2017-09-29T03:05:05.491Z,1010.04
2017-09-29T03:06:05.525Z,1010.04
2017-09-29T03:07:05.562Z,1010.04
2017-09-29T03:08:05.600Z,1010.04
2017-09-29T03:09:05.637Z,1010.01
2017-09-29T03:10:05.673Z,1010.03
2017-09-29T03:11:05.712Z,1010.01
2017-09-29T03:12:05.747Z,1009.98
2017-09-29T03:13:05.785Z,1009.99
2017-09-29T03:14:05.836Z,1009.99
2017-09-29T03:15:05.859Z,1009.97
2017-09-29T03:16:05.898Z,1009.95
2017-09-29T03:17:05.934Z,1009.97
2017-09-29T03:18:05.972Z,1009.98
2017-09-29T03:19:06.010Z,1009.96
2017-09-29T03:20:06.046Z,1009.95
2017-09-29T03:21:06.083Z,1009.93
2017-09-29T03:22:06.120Z,1009.91
2017-09-29T03:23:06.158Z,1009.92
2017-09-29T03:24:06.195Z,1009.93
2017-09-29T03:25:06.231Z,1009.9
2017-09-29T03:26:06.269Z,1009.88
2017-09-29T03:27:06.307Z,1009.88
2017-09-29T03:28:06.345Z,1009.9
2017-09-29T03:29:06.381Z,1009.86
2017-09-29T03:30:06.417Z,1009.91
2017-09-29T03:31:06.456Z,1009.85
2017-09-29T03:32:06.492Z,1009.86
2017-09-29T03:33:06.530Z,1009.85
2017-09-29T03:34:06.565Z,1009.82
2017-09-29T03:35:06.605Z,1009.85
2017-09-29T03:36:06.642Z,1009.85
2017-09-29T03:37:06.685Z,1009.87
2017-09-29T03:38:06.714Z,1009.86
2017-09-29T03:39:06.752Z,1009.88
2017-09-29T03:40:06.814Z,1009.88
2017-09-29T03:41:06.826Z,1009.85
2017-09-29T03:42:06.863Z,1009.84
2017-09-29T03:43:06.905Z,1009.84
2017-09-29T03:44:06.936Z,1009.83
2017-09-29T03:45:06.974Z,1009.86
2017-09-29T03:46:07.011Z,1009.85
2017-09-29T03:47:07.048Z,1009.83
2017-09-29T03:48:07.086Z,1009.83
2017-09-29T03:49:07.122Z,1009.86
2017-09-29T03:50:07.161Z,1009.86
2017-09-29T03:51:07.198Z,1009.86
2017-09-29T03:52:07.233Z,1009.83
2017-09-29T03:53:07.270Z,1009.83
2017-09-29T03:54:07.308Z,1009.87
2017-09-29T03:55:07.351Z,1009.84
2017-09-29T03:56:07.382Z,1009.86
2017-09-29T03:57:07.418Z,1009.82
2017-09-29T03:58:07.483Z,1009.8
2017-09-29T03:59:07.493Z,1009.83
2017-09-29T04:00:07.530Z,1009.82
2017-09-29T04:01:07.567Z,1009.81
2017-09-29T04:02:07.604Z,1009.84
2017-09-29T04:03:07.639Z,1009.81
2017-09-29T04:04:07.678Z,1009.85
2017-09-29T04:05:07.715Z,1009.83
2017-09-29T04:06:07.752Z,1009.79
2017-09-29T04:07:07.788Z,1009.79
2017-09-29T04:08:07.824Z,1009.81
2017-09-29T04:09:07.862Z,1009.82
2017-09-29T04:10:07.899Z,1009.82
2017-09-29T04:11:07.972Z,1009.83
2017-09-29T04:12:07.973Z,1009.85
2017-09-29T04:13:08.011Z,1009.81
2017-09-29T04:14:08.048Z,1009.83
2017-09-29T04:15:08.088Z,1009.81
2017-09-29T04:16:08.121Z,1009.78
2017-09-29T04:17:08.158Z,1009.79
2017-09-29T04:18:08.194Z,1009.73
2017-09-29T04:19:08.231Z,1009.75
2017-09-29T04:20:08.269Z,1009.75
2017-09-29T04:21:08.305Z,1009.73
2017-09-29T04:22:08.347Z,1009.73
2017-09-29T04:23:08.379Z,1009.75
2017-09-29T04:24:08.415Z,1009.71
2017-09-29T04:25:08.453Z,1009.71
2017-09-29T04:26:08.490Z,1009.71
2017-09-29T04:27:08.527Z,1009.74
2017-09-29T04:28:08.563Z,1009.72
2017-09-29T04:29:08.600Z,1009.77
2017-09-29T04:30:08.645Z,1009.74
2017-09-29T04:31:08.675Z,1009.77
2017-09-29T04:32:08.712Z,1009.73
2017-09-29T04:33:08.748Z,1009.77
2017-09-29T04:34:08.784Z,1009.75
2017-09-29T04:35:08.822Z,1009.74
2017-09-29T04:36:08.857Z,1009.74
2017-09-29T04:37:08.898Z,1009.75
2017-09-29T04:38:08.932Z,1009.77
2017-09-29T04:39:08.968Z,1009.78
2017-09-29T04:40:09.006Z,1009.77
2017-09-29T04:41:09.043Z,1009.81
2017-09-29T04:42:09.079Z,1009.77
2017-09-29T04:43:09.115Z,1009.82
2017-09-29T04:44:09.153Z,1009.83
2017-09-29T04:45:09.189Z,1009.84
2017-09-29T04:46:09.224Z,1009.86
2017-09-29T04:47:09.263Z,1009.85
2017-09-29T04:48:09.299Z,1009.84
2017-09-29T04:49:09.337Z,1009.87
2017-09-29T04:50:09.373Z,1009.89
2017-09-29T04:51:09.411Z,1009.86
2017-09-29T04:52:09.448Z,1009.86
2017-09-29T04:53:09.484Z,1009.89
2017-09-29T04:54:09.520Z,1009.88
2017-09-29T04:55:09.557Z,1009.87
2017-09-29T04:56:09.595Z,1009.87
2017-09-29T04:57:09.630Z,1009.91
2017-09-29T04:58:09.666Z,1009.86
2017-09-29T04:59:09.704Z,1009.9
2017-09-29T05:00:09.742Z,1009.86
2017-09-29T05:01:09.776Z,1009.86
2017-09-29T05:02:09.814Z,1009.9
2017-09-29T05:03:09.851Z,1009.8
2017-09-29T05:04:09.888Z,1009.85
2017-09-29T05:05:09.924Z,1009.84
2017-09-29T05:06:09.961Z,1009.8
2017-09-29T05:07:10.007Z,1009.78
2017-09-29T05:08:10.034Z,1009.82
2017-09-29T05:09:10.071Z,1009.79
2017-09-29T05:10:10.108Z,1009.79
2017-09-29T05:11:10.146Z,1009.82
2017-09-29T05:12:10.181Z,1009.82
2017-09-29T05:13:10.218Z,1009.83
2017-09-29T05:14:10.256Z,1009.8
2017-09-29T05:15:10.292Z,1009.82
2017-09-29T05:16:10.327Z,1009.79
2017-09-29T05:17:10.367Z,1009.83
2017-09-29T05:18:10.402Z,1009.82
2017-09-29T05:19:10.437Z,1009.81
2017-09-29T05:20:10.475Z,1009.77
2017-09-29T05:21:10.512Z,1009.79
2017-09-29T05:22:10.551Z,1009.81
2017-09-29T05:23:10.586Z,1009.76
2017-09-29T05:24:10.623Z,1009.78
2017-09-29T05:25:10.659Z,1009.8
2017-09-29T05:26:10.696Z,1009.81
2017-09-29T05:27:10.733Z,1009.82
2017-09-29T05:28:10.774Z,1009.81
2017-09-29T05:29:10.807Z,1009.83
2017-09-29T05:30:10.876Z,1009.83
2017-09-29T05:31:10.880Z,1009.9
2017-09-29T05:32:10.921Z,1009.87
2017-09-29T05:33:10.953Z,1009.91
2017-09-29T05:34:10.991Z,1009.86
2017-09-29T05:35:11.027Z,1009.94
2017-09-29T05:36:11.067Z,1009.92
2017-09-29T05:37:11.103Z,1009.94
2017-09-29T05:38:11.138Z,1009.92
2017-09-29T05:39:11.174Z,1009.97
2017-09-29T05:40:11.212Z,1009.92
2017-09-29T05:41:11.250Z,1009.98
2017-09-29T05:42:11.316Z,1009.99
2017-09-29T05:43:11.323Z,1009.96
2017-09-29T05:44:11.359Z,1009.99
2017-09-29T05:45:11.396Z,1009.94
2017-09-29T05:46:11.433Z,1010.01
2017-09-29T05:47:11.477Z,1009.93
2017-09-29T05:48:11.510Z,1009.95
2017-09-29T05:49:11.546Z,1009.97
2017-09-29T05:50:11.583Z,1009.97
2017-09-29T05:51:11.622Z,1010
2017-09-29T05:52:11.657Z,1010.02
2017-09-29T05:53:11.694Z,1009.99
2017-09-29T05:54:11.733Z,1009.99
2017-09-29T05:55:11.770Z,1009.98
2017-09-29T05:56:11.806Z,1009.98
2017-09-29T05:57:11.844Z,1009.98
2017-09-29T05:58:11.881Z,1009.98
2017-09-29T05:59:11.918Z,1009.97
2017-09-29T06:00:11.958Z,1009.97
2017-09-29T06:01:11.993Z,1009.98
2017-09-29T06:02:12.032Z,1009.96
2017-09-29T06:03:12.068Z,1010.02
2017-09-29T06:04:12.106Z,1010.02
2017-09-29T06:05:12.143Z,1010.03
2017-09-29T06:06:12.182Z,1010.05
2017-09-29T06:07:12.219Z,1010.02
2017-09-29T06:08:12.256Z,1010.04
2017-09-29T06:09:12.293Z,1010.07
2017-09-29T06:10:12.332Z,1010.11
2017-09-29T06:11:12.375Z,1010.09
2017-09-29T06:12:12.407Z,1010.07
2017-09-29T06:13:12.445Z,1010.09
2017-09-29T06:14:12.482Z,1010.15
2017-09-29T06:15:12.648Z,1010.08
2017-09-29T06:16:12.591Z,1010.14
2017-09-29T06:17:12.611Z,1010.15
2017-09-29T06:18:12.635Z,1010.09
2017-09-29T06:19:12.678Z,1010.13
2017-09-29T06:20:12.767Z,1010.12
2017-09-29T06:21:12.763Z,1010.1
2017-09-29T06:22:12.787Z,1010.16
